Elon, NC

21:24 EDT le 25 août 2016 (GMT -0400)
Brownstone Drive | | Change Station

Alt. 702 ft 36.11 °N, 79.53 °W | Updated 3 minutes ago

Clear
Ciel dégagé
81.3 ° F
Paraît 87 ° F
N
0.6
Vent Variable Vent de Nord
Gusts 1.9 mph

Aujourd'hui
Haut(e) -- | Bas -- ° F
--% Risque de précip.
Hier
Haut(e) -- | Bas -- ° F
Precip. -- pouce
Pression 30.07 pouce
Visibilité 10.0 Miles terrestres
Nuages Ciel dégagé
indice de chaleur 87 ° F
Point de rosée 75 ° F
Humidité 80%
Précipitations 0.00 pouce
Profondeur de la couche neigeuse Non disponible.
6:44 AM 7:54 PM
Dernier quartier, 40% visible
METAR KBUY 260054Z AUTO 00000KT 10SM CLR 26/23 A3009 RMK AO2 SLP182 T02610228
Pression 30.07 pouce
Visibilité 10.0 Miles terrestres
Nuages Ciel dégagé
indice de chaleur 87 ° F
Point de rosée 75 ° F
Humidité 80%
Précipitations 0.00 pouce
Profondeur de la couche neigeuse Non disponible.
6:44 AM 7:54 PM
Dernier quartier, 40% visible
METAR KBUY 260054Z AUTO 00000KT 10SM CLR 26/23 A3009 RMK AO2 SLP182 T02610228
A tropical disturbance pushing toward the Bahamas, is expected to develop into a tropical depression or storm, and will likely target Florida and the Gulf Coast this weekend into next week.

Right now, the disturbance remains a broad area of low pressure pushing through the Dominican Republic and Haiti, headed toward the southeast Bahamas. Rainfall totals over 3 inches (with locally higher amounts) are expected in Hispañiola, particularly over elevated terrain.

10-Day Weather Forecast

Almanac

Astronomie

Aug. 25, 2016 Lever Coucher
Temps réel
Crépuscule civil
Crépuscule nautique
Crépuscule astronomique
Lune
Durée de lumière visible
Longueur du jour
Tomorrow will be .
, % of the Moon is Illuminated

Extrêmes aujourd'hui

State Highs State Lows

Community

WunderPhotos

Upload Photos

1,935,005 Photos téléchargées !

WunderBlog® & News

Nearby

Qualité de l'air

  Qualité de l'air Indice de la qualité de l'air Polluant
Not available.

Épaisseur de neige

Station Depth Altitude

Activité sismique

Ville Distance Mag. Time & Date
Minimum magnitude displayed is 2.5.

Températures des eaux côtières

Lieu Température

Stations

Stations météo à proximité

Emplacement de la station Température Refroidissement éolien Point de rosée Humidité Vent Precip. Alt. Mise à jour Type
                   

Watches & Warnings

There are currently no watches in effect.